createdAt,value
2018-03-07T00:00:43.014Z,85.11
2018-03-07T00:01:43.079Z,85.3
2018-03-07T00:02:43.045Z,85.2
2018-03-07T00:03:43.061Z,85.39
2018-03-07T00:04:43.137Z,85.3
2018-03-07T00:05:43.091Z,85.11
2018-03-07T00:06:43.109Z,85.2
2018-03-07T00:07:43.122Z,84.63
2018-03-07T00:08:43.141Z,85.39
2018-03-07T00:09:43.164Z,85.3
2018-03-07T00:10:42.915Z,84.63
2018-03-07T00:11:43.218Z,85.2
2018-03-07T00:12:43.199Z,84.82
2018-03-07T00:13:43.221Z,85.01
2018-03-07T00:14:43.236Z,84.82
2018-03-07T00:15:43.253Z,84.82
2018-03-07T00:16:43.316Z,85.3
2018-03-07T00:17:43.283Z,85.3
2018-03-07T00:18:43.299Z,84.72
2018-03-07T00:19:43.315Z,84.82
2018-03-07T00:20:43.332Z,85.01
2018-03-07T00:21:43.343Z,85.11
2018-03-07T00:22:43.107Z,84.91
2018-03-07T00:23:43.434Z,85.2
2018-03-07T00:24:43.392Z,85.01
2018-03-07T00:25:43.407Z,85.3
2018-03-07T00:26:43.425Z,85.01
2018-03-07T00:27:43.435Z,85.11
2018-03-07T00:28:43.454Z,85.39
2018-03-07T00:29:43.470Z,85.39
2018-03-07T00:30:43.485Z,85.39
2018-03-07T00:31:43.549Z,85.11
2018-03-07T00:32:43.517Z,85.3
2018-03-07T00:33:43.534Z,85.3
2018-03-07T00:34:43.293Z,85.11
2018-03-07T00:35:43.306Z,85.11
2018-03-07T00:36:43.324Z,85.11
2018-03-07T00:37:43.339Z,85.3
2018-03-07T00:38:43.605Z,84.82
2018-03-07T00:39:43.375Z,85.01
2018-03-07T00:40:43.389Z,85.3
2018-03-07T00:41:43.657Z,85.01
2018-03-07T00:42:43.674Z,85.3
2018-03-07T00:43:43.435Z,85.2
2018-03-07T00:44:43.451Z,84.91
2018-03-07T00:45:43.716Z,84.63
2018-03-07T00:46:43.783Z,84.72
2018-03-07T00:47:43.496Z,84.72
2018-03-07T00:48:43.764Z,84.82
2018-03-07T00:49:43.783Z,84.63
2018-03-07T00:50:43.796Z,84.91
2018-03-07T00:51:43.560Z,85.3
2018-03-07T00:52:43.825Z,84.44
2018-03-07T00:53:43.590Z,84.72
2018-03-07T00:54:43.859Z,84.63
2018-03-07T00:55:43.876Z,84.63
2018-03-07T00:56:43.887Z,85.11
2018-03-07T00:57:43.904Z,85.3
2018-03-07T00:58:43.920Z,85.11
2018-03-07T00:59:43.936Z,85.01
2018-03-07T01:00:43.948Z,85.3
2018-03-07T01:01:44.020Z,84.72
2018-03-07T01:02:43.980Z,85.3
2018-03-07T01:03:44.007Z,85.3
2018-03-07T01:04:44.015Z,85.11
2018-03-07T01:05:44.028Z,85.01
2018-03-07T01:06:43.790Z,85.2
2018-03-07T01:07:44.062Z,85.01
2018-03-07T01:08:44.078Z,85.3
2018-03-07T01:09:44.093Z,85.2
2018-03-07T01:10:44.111Z,85.39
2018-03-07T01:11:44.125Z,85.2
2018-03-07T01:12:44.141Z,85.39
2018-03-07T01:13:44.159Z,85.01
2018-03-07T01:14:43.915Z,85.3
2018-03-07T01:15:43.932Z,85.01
2018-03-07T01:16:44.256Z,85.01
2018-03-07T01:17:43.961Z,85.01
2018-03-07T01:18:44.226Z,85.3
2018-03-07T01:19:43.990Z,85.11
2018-03-07T01:20:44.004Z,85.3
2018-03-07T01:21:44.021Z,85.11
2018-03-07T01:22:44.290Z,85.25
2018-03-07T01:23:44.322Z,85.11
2018-03-07T01:24:44.321Z,85.72
2018-03-07T01:25:44.338Z,85.53
2018-03-07T01:26:44.456Z,85.63
2018-03-07T01:27:44.372Z,85.72
2018-03-07T01:28:44.389Z,85.44
2018-03-07T01:29:44.404Z,85.58
2018-03-07T01:30:44.415Z,85.63
2018-03-07T01:31:44.481Z,85.35
2018-03-07T01:32:44.446Z,85.63
2018-03-07T01:33:44.461Z,85.72
2018-03-07T01:34:44.480Z,85.82
2018-03-07T01:35:44.251Z,85.25
2018-03-07T01:36:44.507Z,85.25
2018-03-07T01:37:44.268Z,85.53
2018-03-07T01:38:44.286Z,85.06
2018-03-07T01:39:44.297Z,85.63
2018-03-07T01:40:44.571Z,85.82
2018-03-07T01:41:44.330Z,86.2
2018-03-07T01:42:44.605Z,86.01
2018-03-07T01:43:44.616Z,86.2
2018-03-07T01:44:44.631Z,85.53
2018-03-07T01:45:44.672Z,85.35
2018-03-07T01:46:44.669Z,85.72
2018-03-07T01:47:44.679Z,85.63
2018-03-07T01:48:44.690Z,86.2
2018-03-07T01:49:44.707Z,86.11
2018-03-07T01:50:44.547Z,85.63
2018-03-07T01:51:44.739Z,85.44
2018-03-07T01:52:44.755Z,85.25
2018-03-07T01:53:44.768Z,84.97
2018-03-07T01:54:44.783Z,85.25
2018-03-07T01:55:44.799Z,85.25
2018-03-07T01:56:44.563Z,85.11
2018-03-07T01:57:44.578Z,84.63
2018-03-07T01:58:44.846Z,85.25
2018-03-07T01:59:44.858Z,85.2
2018-03-07T02:00:44.621Z,85.3
2018-03-07T02:01:44.889Z,84.63
2018-03-07T02:02:44.907Z,84.68
2018-03-07T02:05:32.109Z,84.59
2018-03-07T02:21:46.126Z,85.06
2018-03-07T02:22:45.883Z,84.97
2018-03-07T02:23:46.154Z,85.35
2018-03-07T02:24:46.168Z,84.97
2018-03-07T02:25:46.181Z,85.06
2018-03-07T02:26:46.196Z,85.72
2018-03-07T02:27:45.962Z,85.16
2018-03-07T02:28:45.974Z,85.16
2018-03-07T02:29:45.988Z,85.25
2018-03-07T02:30:46.012Z,84.78
2018-03-07T02:31:46.281Z,85.06
2018-03-07T02:32:46.436Z,85.25
2018-03-07T02:33:46.049Z,85.72
2018-03-07T02:34:46.068Z,85.63
2018-03-07T02:35:46.341Z,85.16
2018-03-07T02:36:46.406Z,85.06
2018-03-07T02:37:46.109Z,85.06
2018-03-07T02:38:46.382Z,84.97
2018-03-07T02:39:46.402Z,85.25
2018-03-07T02:40:46.410Z,84.68
2018-03-07T02:41:46.424Z,84.97
2018-03-07T02:42:46.442Z,84.59
2018-03-07T02:43:46.199Z,84.82
2018-03-07T02:44:46.467Z,84.44
2018-03-07T02:45:46.230Z,84.06
2018-03-07T02:46:46.499Z,84.34
2018-03-07T02:47:46.260Z,84.44
2018-03-07T02:48:46.285Z,84.44
2018-03-07T02:49:46.293Z,83.97
2018-03-07T02:50:46.578Z,84.25
2018-03-07T02:51:46.632Z,83.97
2018-03-07T02:52:46.596Z,83.97
2018-03-07T02:53:46.362Z,84.06
2018-03-07T02:54:46.626Z,83.87
2018-03-07T02:55:46.645Z,83.87
2018-03-07T02:56:46.655Z,83.97
2018-03-07T02:57:46.667Z,84.06
2018-03-07T02:58:46.696Z,84.25
2018-03-07T02:59:46.709Z,84.34
2018-03-07T03:00:46.721Z,83.68
2018-03-07T03:01:46.733Z,84.25
2018-03-07T03:02:46.508Z,84.06
2018-03-07T03:03:46.761Z,84.25
2018-03-07T03:04:46.526Z,83.68
2018-03-07T03:05:46.542Z,84.06
2018-03-07T03:06:46.863Z,84.06
2018-03-07T03:07:46.824Z,83.78
2018-03-07T03:08:46.841Z,83.87
2018-03-07T03:09:46.851Z,84.06
2018-03-07T03:10:46.621Z,83.78
2018-03-07T03:11:46.887Z,83.78
2018-03-07T03:12:46.646Z,83.78
2018-03-07T03:13:46.918Z,83.78
2018-03-07T03:14:46.685Z,83.78
2018-03-07T03:15:46.946Z,83.87
2018-03-07T03:16:46.963Z,83.2
2018-03-07T03:17:46.724Z,83.97
2018-03-07T03:18:46.997Z,83.78
2018-03-07T03:19:47.014Z,83.68
2018-03-07T03:20:46.799Z,83.87
2018-03-07T03:21:46.836Z,83.97
2018-03-07T03:22:46.798Z,84.06
2018-03-07T03:23:46.817Z,83.97
2018-03-07T03:24:47.088Z,83.68
2018-03-07T03:25:47.099Z,83.87
2018-03-07T03:26:46.859Z,83.78
2018-03-07T03:27:47.136Z,83.49
2018-03-07T03:28:47.148Z,83.2
2018-03-07T03:29:46.913Z,83.39
2018-03-07T03:30:47.181Z,83.39
2018-03-07T03:31:46.941Z,83.2
2018-03-07T03:32:47.209Z,83.2
2018-03-07T03:33:47.254Z,83.68
2018-03-07T03:34:47.253Z,83.39
2018-03-07T03:35:47.256Z,83.3
2018-03-07T03:36:47.321Z,83.39
2018-03-07T03:37:47.292Z,83.49
2018-03-07T03:38:47.307Z,83.87
2018-03-07T03:39:47.065Z,83.87
2018-03-07T03:40:47.333Z,83.3
2018-03-07T03:41:47.348Z,83.3
2018-03-07T03:42:47.361Z,83.59
2018-03-07T03:43:47.381Z,83.59
2018-03-07T03:44:47.397Z,83.49
2018-03-07T03:45:47.467Z,83.3
2018-03-07T03:46:47.226Z,83.68
2018-03-07T03:47:47.443Z,83.3
2018-03-07T03:48:47.458Z,83.68
2018-03-07T03:49:47.218Z,84.34
2018-03-07T03:50:47.488Z,84.16
2018-03-07T03:51:47.250Z,83.78
2018-03-07T03:52:47.264Z,83.78
2018-03-07T03:53:47.283Z,83.78
2018-03-07T03:54:47.551Z,83.01
2018-03-07T03:55:47.309Z,83.39
2018-03-07T03:56:47.580Z,83.39
2018-03-07T03:57:47.592Z,83.3
2018-03-07T03:58:47.613Z,84.06
2018-03-07T03:59:47.374Z,83.78
2018-03-07T04:00:47.644Z,83.87
2018-03-07T04:01:47.714Z,83.87
2018-03-07T04:02:47.419Z,83.39
2018-03-07T04:03:47.696Z,83.87
2018-03-07T04:04:47.704Z,84.06
2018-03-07T04:05:47.724Z,84.06
2018-03-07T04:06:47.734Z,84.25
2018-03-07T04:07:47.751Z,84.25
2018-03-07T04:08:47.513Z,83.68
2018-03-07T04:09:47.529Z,83.78
2018-03-07T04:10:47.542Z,83.39
2018-03-07T04:11:47.809Z,83.78
2018-03-07T04:12:47.577Z,83.78
2018-03-07T04:13:47.840Z,83.78
2018-03-07T04:14:47.856Z,84.06
2018-03-07T04:15:47.882Z,84.16
2018-03-07T04:16:47.942Z,84.34
2018-03-07T04:17:47.649Z,84.34
2018-03-07T04:18:47.665Z,84.34
2018-03-07T04:19:47.681Z,84.97
2018-03-07T04:20:47.698Z,85.25
2018-03-07T04:21:47.968Z,84.53
2018-03-07T04:22:47.728Z,84.34
2018-03-07T04:23:47.997Z,84.82
2018-03-07T04:24:47.758Z,84.44
2018-03-07T04:25:47.773Z,84.25
2018-03-07T04:26:48.042Z,84.34
2018-03-07T04:27:47.803Z,84.44
2018-03-07T04:28:48.074Z,84.06
2018-03-07T04:29:47.836Z,84.34
2018-03-07T04:30:47.851Z,84.44
2018-03-07T04:31:47.916Z,84.72
2018-03-07T04:32:48.131Z,84.82
2018-03-07T04:33:48.155Z,84.44
2018-03-07T04:34:48.166Z,84.72
2018-03-07T04:35:47.926Z,84.44
2018-03-07T04:36:47.941Z,84.25
2018-03-07T04:37:48.235Z,84.63
2018-03-07T04:38:48.224Z,83.97
2018-03-07T04:39:48.241Z,84.72
2018-03-07T04:40:48.277Z,84.53
2018-03-07T04:41:48.322Z,84.44
2018-03-07T04:42:48.297Z,84.82
2018-03-07T04:43:48.048Z,84.82
2018-03-07T04:44:48.069Z,84.82
2018-03-07T04:45:48.332Z,84.63
2018-03-07T04:46:48.346Z,84.72
2018-03-07T04:47:48.366Z,84.63
2018-03-07T04:48:48.384Z,85.11
2018-03-07T04:49:48.396Z,85.3
2018-03-07T04:50:48.160Z,85.25
2018-03-07T04:51:48.427Z,85.01
2018-03-07T04:52:48.442Z,84.72
2018-03-07T04:53:48.457Z,84.44
2018-03-07T04:54:48.470Z,84.34
2018-03-07T04:55:48.490Z,83.97
2018-03-07T04:56:48.300Z,84.34
2018-03-07T04:57:48.520Z,84.44
2018-03-07T04:58:48.533Z,84.82
2018-03-07T04:59:48.293Z,84.82
2018-03-07T05:00:48.568Z,84.44
2018-03-07T05:01:48.581Z,84.63
2018-03-07T05:02:48.774Z,84.72
2018-03-07T05:03:48.608Z,84.63
2018-03-07T05:04:48.638Z,84.25
2018-03-07T05:05:48.388Z,84.53
2018-03-07T05:06:48.660Z,84.44
2018-03-07T05:07:48.670Z,84.91
2018-03-07T05:08:48.686Z,85.11
2018-03-07T05:09:48.705Z,85.2
2018-03-07T05:10:48.717Z,85.2
2018-03-07T05:11:48.786Z,85.35
2018-03-07T05:12:48.499Z,85.11
2018-03-07T05:13:48.763Z,84.53
2018-03-07T05:14:48.782Z,84.97
2018-03-07T05:15:48.793Z,85.25
2018-03-07T05:16:48.868Z,85.3
2018-03-07T05:17:48.826Z,85.3
2018-03-07T05:18:48.925Z,84.87
2018-03-07T05:19:48.605Z,85.3
2018-03-07T05:20:48.874Z,85.25
2018-03-07T05:21:48.891Z,85.16
2018-03-07T05:22:48.906Z,85.11
2018-03-07T05:23:48.919Z,85.35
2018-03-07T05:24:48.930Z,85.72
2018-03-07T05:25:48.946Z,86.01
2018-03-07T05:26:48.964Z,85.82
2018-03-07T05:27:48.978Z,86.3
2018-03-07T05:28:48.745Z,86.3
2018-03-07T05:29:48.755Z,85.63
2018-03-07T05:30:49.028Z,85.63
2018-03-07T05:31:48.835Z,85.72
2018-03-07T05:32:48.801Z,84.87
2018-03-07T05:33:49.071Z,85.3
2018-03-07T05:34:49.083Z,85.39
2018-03-07T05:35:49.123Z,85.16
2018-03-07T05:36:48.862Z,85.25
2018-03-07T05:37:49.132Z,85.35
2018-03-07T05:38:49.168Z,85.35
2018-03-07T05:39:49.159Z,85.35
2018-03-07T05:40:49.180Z,85.53
2018-03-07T05:41:49.191Z,85.44
2018-03-07T05:42:49.211Z,85.82
2018-03-07T05:43:49.223Z,85.53
2018-03-07T05:44:49.238Z,85.25
2018-03-07T05:45:49.256Z,85.63
2018-03-07T05:46:49.323Z,85.72
2018-03-07T05:47:49.286Z,85.72
2018-03-07T05:48:49.301Z,85.82
2018-03-07T05:49:49.316Z,86.3
2018-03-07T05:50:49.349Z,86.11
2018-03-07T05:51:49.347Z,86.01
2018-03-07T05:52:49.370Z,86.11
2018-03-07T05:53:49.379Z,85.91
2018-03-07T05:54:49.135Z,86.2
2018-03-07T05:55:49.407Z,86.11
2018-03-07T05:56:49.167Z,86.11
2018-03-07T05:57:49.431Z,86.2
2018-03-07T05:58:49.455Z,85.82
2018-03-07T05:59:49.467Z,85.63
2018-03-07T06:00:49.481Z,86.2
2018-03-07T06:01:49.547Z,85.91
2018-03-07T06:02:49.515Z,86.01
2018-03-07T06:03:49.526Z,86.2
2018-03-07T06:04:49.543Z,85.63
2018-03-07T06:05:49.558Z,85.63
2018-03-07T06:06:49.576Z,86.01
2018-03-07T06:07:49.590Z,86.3
2018-03-07T06:08:49.350Z,85.35
2018-03-07T06:09:49.365Z,85.82
2018-03-07T06:10:49.633Z,85.82
2018-03-07T06:11:49.648Z,85.35
2018-03-07T06:12:49.669Z,85.25
2018-03-07T06:13:49.429Z,85.25
2018-03-07T06:14:49.693Z,85.53
2018-03-07T06:15:49.454Z,85.68
2018-03-07T06:16:49.772Z,85.44
2018-03-07T06:17:49.740Z,84.97
2018-03-07T06:18:49.498Z,85.39
2018-03-07T06:19:49.517Z,85.53
2018-03-07T06:20:49.785Z,85.35
2018-03-07T06:21:49.808Z,85.53
2018-03-07T06:22:49.815Z,85.63
2018-03-07T06:23:49.579Z,85.63
2018-03-07T06:24:49.848Z,86.3
2018-03-07T06:25:49.862Z,85.91
2018-03-07T06:26:49.882Z,86.3
2018-03-07T06:27:49.894Z,85.63
2018-03-07T06:28:49.907Z,85.63
2018-03-07T06:29:49.675Z,85.63
2018-03-07T06:30:49.938Z,85.44
2018-03-07T06:31:50.003Z,85.11
2018-03-07T06:32:49.968Z,85.11
2018-03-07T06:33:49.983Z,85.49
2018-03-07T06:34:49.744Z,85.11
2018-03-07T06:35:50.016Z,85.11
2018-03-07T06:36:50.032Z,85.39
2018-03-07T06:37:50.046Z,85.63
2018-03-07T06:38:49.805Z,85.35
2018-03-07T06:39:50.078Z,85.53
2018-03-07T06:40:50.088Z,85.82
2018-03-07T06:41:49.865Z,85.82
2018-03-07T06:42:50.124Z,85.35
2018-03-07T06:43:50.137Z,85.63
2018-03-07T06:44:50.154Z,85.72
2018-03-07T06:45:50.166Z,86.11
2018-03-07T06:46:50.232Z,85.63
2018-03-07T06:47:49.950Z,86.2
2018-03-07T06:48:50.215Z,85.35
2018-03-07T06:49:50.229Z,85.01
2018-03-07T06:50:50.006Z,85.3
2018-03-07T06:51:50.259Z,85.2
2018-03-07T06:52:50.027Z,85.01
2018-03-07T06:53:50.289Z,84.87
2018-03-07T06:54:50.303Z,84.97
2018-03-07T06:55:50.068Z,85.82
2018-03-07T06:56:50.335Z,86.2
2018-03-07T06:57:50.099Z,85.82
2018-03-07T06:58:50.365Z,85.63
2018-03-07T06:59:50.128Z,86.3
2018-03-07T07:00:50.399Z,85.91
2018-03-07T07:01:50.466Z,85.82
2018-03-07T07:02:50.428Z,85.91
2018-03-07T07:03:50.444Z,85.72
2018-03-07T07:04:50.461Z,86.01
2018-03-07T07:05:50.477Z,85.91
2018-03-07T07:06:50.231Z,86.11
2018-03-07T07:07:50.504Z,85.82
2018-03-07T07:08:50.519Z,85.63
2018-03-07T07:09:50.538Z,86.3
2018-03-07T07:10:50.299Z,85.82
2018-03-07T07:11:50.566Z,86.01
2018-03-07T07:12:50.584Z,85.82
2018-03-07T07:13:50.600Z,86.01
2018-03-07T07:14:50.621Z,86.11
2018-03-07T07:15:50.627Z,86.3
2018-03-07T07:16:50.456Z,86.01
2018-03-07T07:17:50.667Z,85.63
2018-03-07T07:18:50.679Z,85.72
2018-03-07T07:19:50.694Z,85.35
2018-03-07T07:20:50.707Z,85.49
2018-03-07T07:21:50.720Z,85.11
2018-03-07T07:22:50.736Z,85.06
2018-03-07T07:23:50.751Z,85.16
2018-03-07T07:24:50.513Z,85.11
2018-03-07T07:25:50.531Z,84.63
2018-03-07T07:26:50.545Z,84.34
2018-03-07T07:27:50.819Z,84.44
2018-03-07T07:28:50.828Z,84.16
2018-03-07T07:29:50.594Z,84.44
2018-03-07T07:30:50.860Z,84.44
2018-03-07T07:31:50.880Z,84.63
2018-03-07T07:32:50.895Z,84.63
2018-03-07T07:33:50.907Z,84.82
2018-03-07T07:34:50.975Z,84.82
2018-03-07T07:35:50.940Z,84.72
2018-03-07T07:36:50.956Z,84.44
2018-03-07T07:37:50.975Z,84.34
2018-03-07T07:38:50.990Z,84.44
2018-03-07T07:39:51.011Z,84.44
2018-03-07T07:40:51.037Z,84.53
2018-03-07T07:41:51.041Z,84.16
2018-03-07T07:42:51.069Z,83.78
2018-03-07T07:43:51.066Z,83.87
2018-03-07T07:44:51.085Z,84.06
2018-03-07T07:45:51.108Z,83.59
2018-03-07T07:46:50.860Z,83.53
2018-03-07T07:47:50.876Z,83.44
2018-03-07T07:48:50.894Z,83.53
2018-03-07T07:49:50.960Z,83.25
2018-03-07T07:50:50.923Z,82.58
2018-03-07T07:51:51.195Z,82.68
2018-03-07T07:52:51.216Z,83.15
2018-03-07T07:53:50.971Z,82.96
2018-03-07T07:54:51.248Z,82.68
2018-03-07T07:55:51.264Z,82.77
2018-03-07T07:56:51.021Z,82.68
2018-03-07T07:57:51.293Z,83.15
2018-03-07T07:58:51.053Z,83.06
2018-03-07T07:59:51.324Z,82.87
2018-03-07T08:00:51.339Z,82.58
2018-03-07T08:01:51.356Z,82.87
2018-03-07T08:02:51.373Z,82.58
2018-03-07T08:03:51.391Z,82.96
2018-03-07T08:04:51.455Z,82.87
2018-03-07T08:05:51.166Z,82.77
2018-03-07T08:06:51.187Z,82.49
2018-03-07T08:07:51.198Z,82.49
2018-03-07T08:08:51.468Z,82.68
2018-03-07T08:09:51.489Z,82.39
2018-03-07T08:10:51.504Z,82.1
2018-03-07T08:11:51.524Z,81.01
2018-03-07T08:12:51.538Z,81.1
2018-03-07T08:13:51.556Z,80.91
2018-03-07T08:14:51.572Z,80.63
2018-03-07T08:15:51.593Z,80.72
2018-03-07T08:16:51.602Z,80.82
2018-03-07T08:17:51.621Z,80.24
2018-03-07T08:18:51.636Z,80.72
2018-03-07T08:19:51.710Z,80.63
2018-03-07T08:20:51.668Z,80.63
2018-03-07T08:21:51.695Z,80.72
2018-03-07T08:22:51.703Z,79.86
2018-03-07T08:23:51.466Z,79.86
2018-03-07T08:24:51.485Z,79.58
2018-03-07T08:25:51.757Z,78.77
2018-03-07T08:26:51.516Z,78.91
2018-03-07T08:27:51.797Z,79.3
2018-03-07T08:28:51.810Z,79.52
2018-03-07T08:29:51.570Z,79.62
2018-03-07T08:30:51.845Z,79.14
2018-03-07T08:31:51.623Z,78.96
2018-03-07T08:32:51.873Z,78.86
2018-03-07T08:33:51.895Z,78.67
2018-03-07T08:34:51.974Z,78.29
2018-03-07T08:35:51.934Z,78.19
2018-03-07T08:36:51.943Z,78
2018-03-07T08:37:51.971Z,78.29
2018-03-07T08:38:51.981Z,78.48
2018-03-07T08:39:51.997Z,78.91
2018-03-07T08:40:52.017Z,78.96
2018-03-07T08:41:52.040Z,78.19
2018-03-07T08:42:52.052Z,78.19
2018-03-07T08:43:52.066Z,78.29
2018-03-07T08:44:52.385Z,78.67
2018-03-07T08:45:52.105Z,78.96
2018-03-07T08:46:52.129Z,78
2018-03-07T08:47:51.882Z,78.19
2018-03-07T08:48:51.900Z,78.1
2018-03-07T08:49:51.919Z,78.67
2018-03-07T08:50:51.934Z,78.91
2018-03-07T08:51:52.212Z,78.63
2018-03-07T08:52:52.224Z,78.72
2018-03-07T08:53:51.991Z,78.82
2018-03-07T08:54:52.053Z,79.01
2018-03-07T08:55:52.021Z,78.72
2018-03-07T08:56:52.290Z,78.77
2018-03-07T08:57:52.311Z,78.19
2018-03-07T08:58:52.325Z,78.57
2018-03-07T08:59:52.141Z,78.63
2018-03-07T09:00:52.366Z,78.53
2018-03-07T09:01:52.379Z,78.29
2018-03-07T09:02:52.398Z,78.29
2018-03-07T09:03:52.159Z,78.77
2018-03-07T09:04:52.443Z,78
2018-03-07T09:05:52.450Z,78
2018-03-07T09:06:52.464Z,78.48
2018-03-07T09:07:52.482Z,78.29
2018-03-07T09:08:52.518Z,78.82
2018-03-07T09:09:52.263Z,78.25
2018-03-07T09:10:52.282Z,78.1
2018-03-07T09:11:52.551Z,77.81
2018-03-07T09:12:52.316Z,77.34
2018-03-07T09:13:52.587Z,77.62
2018-03-07T09:14:52.654Z,77.34
2018-03-07T09:15:52.620Z,77.34
2018-03-07T09:16:52.384Z,77.43
2018-03-07T09:17:52.401Z,77.05
2018-03-07T09:18:52.679Z,76.71
2018-03-07T09:19:52.692Z,75.95
2018-03-07T09:20:52.706Z,74.71
2018-03-07T09:21:52.471Z,75.09
2018-03-07T09:22:52.489Z,74.71
2018-03-07T09:23:52.511Z,74.62
2018-03-07T09:24:52.777Z,74.52
2018-03-07T09:25:52.797Z,74.24
2018-03-07T09:26:52.565Z,73.95
2018-03-07T09:27:52.838Z,73.7
2018-03-07T09:28:52.890Z,73.47
2018-03-07T09:29:52.919Z,73.19
2018-03-07T09:30:52.631Z,73.03
2018-03-07T09:31:52.655Z,73.47
2018-03-07T09:32:52.919Z,73.95
2018-03-07T09:33:52.684Z,73
2018-03-07T09:34:52.959Z,72.65
2018-03-07T09:35:52.973Z,71.61
2018-03-07T09:36:52.998Z,71.61
2018-03-07T09:37:53.010Z,71.7
2018-03-07T09:38:53.035Z,70.84
2018-03-07T09:39:52.797Z,70.78
2018-03-07T09:40:53.070Z,71.89
2018-03-07T09:41:53.088Z,71.7
2018-03-07T09:42:53.105Z,70.5
2018-03-07T09:43:53.125Z,69.35
2018-03-07T09:44:53.192Z,69.07
2018-03-07T09:45:52.907Z,68.69
2018-03-07T09:46:53.177Z,68.69
2018-03-07T09:47:52.943Z,68.05
2018-03-07T09:48:53.215Z,67.77
2018-03-07T09:49:52.983Z,67.58
2018-03-07T09:50:53.254Z,67.77
2018-03-07T09:51:53.022Z,67.39
2018-03-07T09:52:53.040Z,67.68
2018-03-07T09:53:53.313Z,67.2
2018-03-07T09:54:53.334Z,67.68
2018-03-07T09:55:53.099Z,67.16
2018-03-07T09:56:53.370Z,67.35
2018-03-07T09:57:53.387Z,67.26
2018-03-07T09:58:53.407Z,66.97
2018-03-07T09:59:53.172Z,67.07
2018-03-07T10:00:53.446Z,66.69
2018-03-07T10:01:53.521Z,66.21
2018-03-07T10:02:53.491Z,66.02
2018-03-07T10:03:53.531Z,66.69
2018-03-07T10:04:53.520Z,66.11
2018-03-07T10:05:53.289Z,65.73
2018-03-07T10:06:53.573Z,65.92
2018-03-07T10:07:53.585Z,67.32
2018-03-07T10:08:53.603Z,67.22
2018-03-07T10:09:53.365Z,66.85
2018-03-07T10:10:53.639Z,66.11
2018-03-07T10:11:53.657Z,66.66
2018-03-07T10:12:53.680Z,66.08
2018-03-07T10:13:53.695Z,65.26
2018-03-07T10:14:53.465Z,65.07
2018-03-07T10:15:53.481Z,64.94
2018-03-07T10:16:53.810Z,65.07
2018-03-07T10:17:53.772Z,64.31
2018-03-07T10:18:53.814Z,65.16
2018-03-07T10:19:53.815Z,64.5
2018-03-07T10:20:53.899Z,64.12
2018-03-07T10:21:53.599Z,63.73
2018-03-07T10:22:53.885Z,62.24
2018-03-07T10:23:53.637Z,60.43
2018-03-07T10:24:53.658Z,61.57
2018-03-07T10:25:53.675Z,62.49
2018-03-07T10:26:53.947Z,63
2018-03-07T10:27:53.977Z,63.26
2018-03-07T10:28:53.991Z,63.73
2018-03-07T10:29:54.014Z,63.64
2018-03-07T10:30:54.029Z,63.45
2018-03-07T10:31:54.100Z,62.88
2018-03-07T10:32:54.068Z,62.68
2018-03-07T10:33:54.103Z,63.73
2018-03-07T10:34:54.142Z,63.83
2018-03-07T10:35:53.871Z,64.02
2018-03-07T10:36:54.146Z,63.17
2018-03-07T10:37:54.211Z,63.64
2018-03-07T10:38:53.927Z,63.26
2018-03-07T10:39:53.946Z,63.6
2018-03-07T10:40:54.218Z,64.37
2018-03-07T10:41:54.246Z,63.6
2018-03-07T10:42:54.259Z,63.6
2018-03-07T10:43:54.278Z,64.28
2018-03-07T10:44:54.295Z,64.47
2018-03-07T10:45:54.314Z,64.65
2018-03-07T10:46:54.333Z,65.7
2018-03-07T10:47:54.501Z,65.8
2018-03-07T10:48:54.385Z,65.7
2018-03-07T10:49:54.393Z,66.56
2018-03-07T10:50:54.404Z,66.66
2018-03-07T10:51:54.427Z,66.37
2018-03-07T10:52:54.442Z,66.27
2018-03-07T10:53:54.464Z,66.75
2018-03-07T10:54:54.482Z,66.56
2018-03-07T10:55:54.595Z,66.46
2018-03-07T10:56:54.263Z,65.89
2018-03-07T10:57:54.539Z,65.64
2018-03-07T10:58:54.554Z,64.59
2018-03-07T10:59:54.580Z,64.69
2018-03-07T11:00:54.595Z,65.42
2018-03-07T11:01:54.366Z,65.8
2018-03-07T11:02:54.682Z,65.13
2018-03-07T11:03:54.668Z,64.5
2018-03-07T11:04:54.673Z,63.64
2018-03-07T11:05:54.475Z,63.26
2018-03-07T11:06:54.451Z,62.68
2018-03-07T11:07:54.725Z,62.15
2018-03-07T11:08:54.491Z,61.19
2018-03-07T11:09:54.764Z,61
2018-03-07T11:10:54.780Z,61.07
2018-03-07T11:11:54.799Z,60.33
2018-03-07T11:12:54.826Z,59.35
2018-03-07T11:13:54.907Z,58.91
2018-03-07T11:14:54.860Z,58.78
2018-03-07T11:15:54.880Z,59.83
2018-03-07T11:16:54.895Z,59.74
2018-03-07T11:17:54.973Z,58.78
2018-03-07T11:18:54.954Z,58.3
2018-03-07T11:19:54.956Z,57.92
2018-03-07T11:20:54.975Z,57.92
2018-03-07T11:21:54.739Z,58.02
2018-03-07T11:22:54.809Z,58.11
2018-03-07T11:23:54.780Z,57.73
2018-03-07T11:24:55.053Z,57
2018-03-07T11:25:55.072Z,55.47
2018-03-07T11:26:55.094Z,54.36
2018-03-07T11:27:55.124Z,52.26
2018-03-07T11:28:54.903Z,51.31
2018-03-07T11:29:55.158Z,52.19
2018-03-07T11:30:54.932Z,51.97
2018-03-07T11:31:54.950Z,51.97
2018-03-07T11:32:55.274Z,50.38
2018-03-07T11:33:55.250Z,49.04
2018-03-07T11:34:55.264Z,47.92
2018-03-07T11:35:55.294Z,47.27
2018-03-07T11:36:55.315Z,45.48
2018-03-07T11:37:55.347Z,44.45
2018-03-07T11:38:55.362Z,43.69
2018-03-07T11:39:55.153Z,43.69
2018-03-07T11:40:55.416Z,43.5
2018-03-07T11:41:55.182Z,43.4
2018-03-07T11:42:55.457Z,43.12
2018-03-07T11:43:55.481Z,42.25
2018-03-07T11:44:55.253Z,42.73
2018-03-07T11:45:55.536Z,44.22
2018-03-07T11:46:55.579Z,45.15
2018-03-07T11:47:55.630Z,45.89
2018-03-07T11:48:55.606Z,45.99
2018-03-07T11:49:55.626Z,45.72
2018-03-07T11:50:55.654Z,45.43
2018-03-07T11:51:55.419Z,45.34
2018-03-07T11:52:55.704Z,44.96
2018-03-07T11:53:55.468Z,44.89
2018-03-07T11:54:55.741Z,44.96
2018-03-07T11:55:55.764Z,44.96
2018-03-07T11:56:55.788Z,44.77
2018-03-07T11:57:55.560Z,45.42
2018-03-07T11:58:55.838Z,45.25
2018-03-07T11:59:55.857Z,45.63
2018-03-07T12:00:55.887Z,46.66
2018-03-07T12:01:55.647Z,47.52
2018-03-07T12:02:55.924Z,47.87
2018-03-07T12:03:55.999Z,47.13
2018-03-07T12:04:55.715Z,46.27
2018-03-07T12:05:55.993Z,44.77
2018-03-07T12:06:55.759Z,44.41
2018-03-07T12:07:55.785Z,44.1
2018-03-07T12:08:56.060Z,45.15
2018-03-07T12:09:55.831Z,45.63
2018-03-07T12:10:56.104Z,45.15
2018-03-07T12:11:55.873Z,43.91
2018-03-07T12:12:55.897Z,42.97
2018-03-07T12:13:55.923Z,41.85
2018-03-07T12:14:56.202Z,41.47
2018-03-07T12:15:56.240Z,41.3
2018-03-07T12:16:55.994Z,40.46
2018-03-07T12:17:56.275Z,39.79
2018-03-07T12:18:56.345Z,39.98
2018-03-07T12:19:56.343Z,39.69
2018-03-07T12:20:56.349Z,39.69
2018-03-07T12:21:56.379Z,39.96
2018-03-07T12:22:56.396Z,39.31
2018-03-07T12:23:56.165Z,39.31
2018-03-07T12:24:56.192Z,38.54
2018-03-07T12:25:56.477Z,38.26
2018-03-07T12:26:56.243Z,38.09
2018-03-07T12:27:56.578Z,37.05
2018-03-07T12:28:56.548Z,35.92
2018-03-07T12:29:56.323Z,35.92
2018-03-07T12:30:56.603Z,35.73
2018-03-07T12:31:56.628Z,35.44
2018-03-07T12:32:56.418Z,35.63
2018-03-07T12:33:56.827Z,35.06
2018-03-07T12:34:56.450Z,35.35
2018-03-07T12:35:56.733Z,33.73
2018-03-07T12:36:56.506Z,33.64
2018-03-07T12:37:56.531Z,33.35
2018-03-07T12:38:56.557Z,32.62
2018-03-07T12:39:56.591Z,31.85
2018-03-07T12:40:56.881Z,32.33
2018-03-07T12:41:56.896Z,32.31
2018-03-07T12:42:56.923Z,31.35
2018-03-07T12:43:56.695Z,32.29
2018-03-07T12:44:56.990Z,33.99
2018-03-07T12:45:56.756Z,34.93
2018-03-07T12:46:57.040Z,35.29
2018-03-07T12:47:56.807Z,34.81
2018-03-07T12:48:57.134Z,34.08
2018-03-07T12:49:57.115Z,33.8
2018-03-07T12:50:56.886Z,34.64
2018-03-07T12:51:57.163Z,35.29
2018-03-07T12:52:56.935Z,35.77
2018-03-07T12:53:56.973Z,35.68
2018-03-07T12:54:57.239Z,35.49
2018-03-07T12:55:57.268Z,35.77
2018-03-07T12:56:57.293Z,36.33
2018-03-07T12:57:57.321Z,36.43
2018-03-07T12:58:57.342Z,36.99
2018-03-07T12:59:57.366Z,38.22
2018-03-07T13:00:57.393Z,38.87
2018-03-07T13:01:57.412Z,39.35
2018-03-07T13:02:57.439Z,39.92
2018-03-07T13:03:57.523Z,38.6
2018-03-07T13:04:57.488Z,36.9
2018-03-07T13:05:57.262Z,36.06
2018-03-07T13:06:57.288Z,35.88
2018-03-07T13:07:57.312Z,34.75
2018-03-07T13:08:57.336Z,33.8
2018-03-07T13:09:57.618Z,33.33
2018-03-07T13:10:57.652Z,33.87
2018-03-07T13:11:57.668Z,33.59
2018-03-07T13:12:57.439Z,32.55
2018-03-07T13:13:57.720Z,31.99